sensor_id;sensor_type;location;lat;lon;timestamp;P1;durP1;ratioP1;P2;durP2;ratioP2
51584;SDS011;37669;50.312;18.670;2022-12-07T04:28:57;452.58;;;105.25;;
51584;SDS011;37669;50.312;18.670;2022-12-07T04:31:24;482.30;;;114.80;;
51584;SDS011;37669;50.312;18.670;2022-12-07T04:33:51;477.55;;;111.32;;
51584;SDS011;37669;50.312;18.670;2022-12-07T04:36:19;405.30;;;100.35;;
51584;SDS011;37669;50.312;18.670;2022-12-07T04:38:46;441.60;;;107.43;;
51584;SDS011;37669;50.312;18.670;2022-12-07T04:41:13;395.02;;;103.28;;
51584;SDS011;37669;50.312;18.670;2022-12-07T04:43:40;404.90;;;99.75;;
51584;SDS011;37669;50.312;18.670;2022-12-07T04:46:08;377.88;;;101.60;;
51584;SDS011;37669;50.312;18.670;2022-12-07T04:48:35;425.13;;;112.32;;
51584;SDS011;37669;50.312;18.670;2022-12-07T04:51:03;298.95;;;92.32;;
51584;SDS011;37669;50.312;18.670;2022-12-07T04:53:30;396.67;;;115.13;;
51584;SDS011;37669;50.312;18.670;2022-12-07T04:55:57;355.58;;;105.20;;
51584;SDS011;37669;50.312;18.670;2022-12-07T04:58:26;367.10;;;113.75;;
51584;SDS011;37669;50.312;18.670;2022-12-07T05:00:53;235.02;;;87.97;;
51584;SDS011;37669;50.312;18.670;2022-12-07T05:03:22;319.15;;;111.22;;
51584;SDS011;37669;50.312;18.670;2022-12-07T05:05:49;259.88;;;93.57;;
51584;SDS011;37669;50.312;18.670;2022-12-07T05:08:17;287.95;;;96.90;;
51584;SDS011;37669;50.312;18.670;2022-12-07T05:10:44;293.20;;;94.57;;
51584;SDS011;37669;50.312;18.670;2022-12-07T05:13:11;283.80;;;97.40;;
51584;SDS011;37669;50.312;18.670;2022-12-07T05:15:38;255.27;;;84.60;;
51584;SDS011;37669;50.312;18.670;2022-12-07T05:18:05;192.73;;;72.65;;
51584;SDS011;37669;50.312;18.670;2022-12-07T05:20:33;236.85;;;83.10;;
51584;SDS011;37669;50.312;18.670;2022-12-07T05:23:00;166.05;;;75.07;;
51584;SDS011;37669;50.312;18.670;2022-12-07T05:25:27;223.18;;;83.45;;
51584;SDS011;37669;50.312;18.670;2022-12-07T05:27:54;193.52;;;78.35;;
51584;SDS011;37669;50.312;18.670;2022-12-07T05:30:22;221.90;;;83.07;;
51584;SDS011;37669;50.312;18.670;2022-12-07T05:32:49;221.15;;;87.57;;
51584;SDS011;37669;50.312;18.670;2022-12-07T05:35:16;220.57;;;78.57;;
51584;SDS011;37669;50.312;18.670;2022-12-07T05:37:45;245.90;;;80.15;;
51584;SDS011;37669;50.312;18.670;2022-12-07T05:40:12;244.30;;;79.38;;
51584;SDS011;37669;50.312;18.670;2022-12-07T05:42:40;294.50;;;86.00;;
51584;SDS011;37669;50.312;18.670;2022-12-07T05:45:08;221.13;;;79.35;;
51584;SDS011;37669;50.312;18.670;2022-12-07T05:47:36;397.70;;;99.85;;
51584;SDS011;37669;50.312;18.670;2022-12-07T05:50:04;286.38;;;86.10;;
51584;SDS011;37669;50.312;18.670;2022-12-07T05:52:32;347.30;;;91.15;;
51584;SDS011;37669;50.312;18.670;2022-12-07T05:55:00;300.40;;;80.82;;
51584;SDS011;37669;50.312;18.670;2022-12-07T05:57:27;222.25;;;77.20;;
51584;SDS011;37669;50.312;18.670;2022-12-07T05:59:55;295.17;;;85.68;;
51584;SDS011;37669;50.312;18.670;2022-12-07T06:02:20;169.95;;;67.40;;
51584;SDS011;37669;50.312;18.670;2022-12-07T06:04:48;188.75;;;73.65;;
51584;SDS011;37669;50.312;18.670;2022-12-07T06:07:15;249.70;;;83.78;;
51584;SDS011;37669;50.312;18.670;2022-12-07T06:09:43;270.20;;;87.82;;
51584;SDS011;37669;50.312;18.670;2022-12-07T06:12:12;226.65;;;85.45;;
51584;SDS011;37669;50.312;18.670;2022-12-07T06:14:57;187.80;;;78.60;;
51584;SDS011;37669;50.312;18.670;2022-12-07T06:17:25;163.90;;;72.90;;
51584;SDS011;37669;50.312;18.670;2022-12-07T06:19:52;198.82;;;76.13;;
51584;SDS011;37669;50.312;18.670;2022-12-07T06:22:19;190.05;;;83.03;;
51584;SDS011;37669;50.312;18.670;2022-12-07T06:24:46;207.52;;;78.88;;
51584;SDS011;37669;50.312;18.670;2022-12-07T06:40:18;202.25;;;79.22;;
51584;SDS011;37669;50.312;18.670;2022-12-07T06:42:45;184.95;;;88.85;;
51584;SDS011;37669;50.312;18.670;2022-12-07T06:45:12;276.30;;;93.13;;
51584;SDS011;37669;50.312;18.670;2022-12-07T06:47:39;238.40;;;91.63;;
51584;SDS011;37669;50.312;18.670;2022-12-07T06:50:07;249.55;;;98.85;;
51584;SDS011;37669;50.312;18.670;2022-12-07T06:52:34;290.60;;;98.43;;
51584;SDS011;37669;50.312;18.670;2022-12-07T06:55:01;207.63;;;85.65;;
51584;SDS011;37669;50.312;18.670;2022-12-07T06:57:30;219.00;;;79.57;;
51584;SDS011;37669;50.312;18.670;2022-12-07T06:59:57;211.10;;;81.55;;
51584;SDS011;37669;50.312;18.670;2022-12-07T07:02:24;262.15;;;93.22;;
51584;SDS011;37669;50.312;18.670;2022-12-07T07:04:51;222.75;;;85.05;;
51584;SDS011;37669;50.312;18.670;2022-12-07T07:07:18;284.08;;;89.68;;
51584;SDS011;37669;50.312;18.670;2022-12-07T07:09:45;291.33;;;97.88;;
51584;SDS011;37669;50.312;18.670;2022-12-07T07:12:12;238.90;;;94.00;;
51584;SDS011;37669;50.312;18.670;2022-12-07T07:14:41;328.30;;;106.43;;
51584;SDS011;37669;50.312;18.670;2022-12-07T07:17:09;304.25;;;109.47;;
51584;SDS011;37669;50.312;18.670;2022-12-07T07:19:36;303.55;;;115.55;;
51584;SDS011;37669;50.312;18.670;2022-12-07T07:22:03;348.65;;;119.38;;
51584;SDS011;37669;50.312;18.670;2022-12-07T07:24:31;254.90;;;104.00;;
51584;SDS011;37669;50.312;18.670;2022-12-07T07:26:58;304.25;;;103.55;;
51584;SDS011;37669;50.312;18.670;2022-12-07T07:29:25;286.80;;;102.10;;
51584;SDS011;37669;50.312;18.670;2022-12-07T07:31:53;341.55;;;105.28;;
51584;SDS011;37669;50.312;18.670;2022-12-07T07:34:20;282.13;;;96.10;;
51584;SDS011;37669;50.312;18.670;2022-12-07T07:36:47;403.58;;;111.72;;
51584;SDS011;37669;50.312;18.670;2022-12-07T07:39:14;276.10;;;100.68;;
51584;SDS011;37669;50.312;18.670;2022-12-07T07:41:41;269.25;;;96.45;;
51584;SDS011;37669;50.312;18.670;2022-12-07T07:44:09;364.45;;;105.03;;
51584;SDS011;37669;50.312;18.670;2022-12-07T07:46:36;365.25;;;109.43;;
51584;SDS011;37669;50.312;18.670;2022-12-07T07:49:04;336.02;;;99.95;;
51584;SDS011;37669;50.312;18.670;2022-12-07T07:51:31;469.63;;;110.30;;
51584;SDS011;37669;50.312;18.670;2022-12-07T07:53:58;516.28;;;130.07;;
51584;SDS011;37669;50.312;18.670;2022-12-07T07:56:25;397.98;;;119.38;;
51584;SDS011;37669;50.312;18.670;2022-12-07T07:58:52;403.42;;;129.52;;
51584;SDS011;37669;50.312;18.670;2022-12-07T08:01:20;413.52;;;128.38;;
51584;SDS011;37669;50.312;18.670;2022-12-07T08:03:47;394.77;;;117.82;;
51584;SDS011;37669;50.312;18.670;2022-12-07T08:06:16;311.33;;;107.72;;
51584;SDS011;37669;50.312;18.670;2022-12-07T08:08:43;262.05;;;100.22;;
51584;SDS011;37669;50.312;18.670;2022-12-07T08:11:10;292.63;;;104.68;;
51584;SDS011;37669;50.312;18.670;2022-12-07T08:13:38;221.15;;;92.85;;
51584;SDS011;37669;50.312;18.670;2022-12-07T08:16:06;304.85;;;102.95;;
51584;SDS011;37669;50.312;18.670;2022-12-07T08:18:35;253.75;;;99.18;;
51584;SDS011;37669;50.312;18.670;2022-12-07T08:21:03;200.65;;;84.63;;
51584;SDS011;37669;50.312;18.670;2022-12-07T08:23:32;184.77;;;83.05;;
51584;SDS011;37669;50.312;18.670;2022-12-07T08:26:00;195.00;;;103.05;;
51584;SDS011;37669;50.312;18.670;2022-12-07T08:28:28;225.57;;;122.35;;
51584;SDS011;37669;50.312;18.670;2022-12-07T08:30:58;179.70;;;101.15;;
51584;SDS011;37669;50.312;18.670;2022-12-07T08:33:26;164.88;;;78.70;;
51584;SDS011;37669;50.312;18.670;2022-12-07T08:35:53;192.60;;;85.43;;
51584;SDS011;37669;50.312;18.670;2022-12-07T08:38:20;173.05;;;86.55;;
51584;SDS011;37669;50.312;18.670;2022-12-07T08:40:54;171.50;;;82.20;;
51584;SDS011;37669;50.312;18.670;2022-12-07T08:43:22;143.13;;;77.97;;
51584;SDS011;37669;50.312;18.670;2022-12-07T08:45:49;139.60;;;80.15;;
51584;SDS011;37669;50.312;18.670;2022-12-07T08:48:24;123.57;;;61.75;;
51584;SDS011;37669;50.312;18.670;2022-12-07T08:50:52;130.95;;;70.15;;
51584;SDS011;37669;50.312;18.670;2022-12-07T08:53:19;208.10;;;114.63;;
51584;SDS011;37669;50.312;18.670;2022-12-07T08:55:47;181.93;;;98.32;;
51584;SDS011;37669;50.312;18.670;2022-12-07T08:58:16;155.02;;;84.68;;
51584;SDS011;37669;50.312;18.670;2022-12-07T09:00:43;159.15;;;83.97;;
51584;SDS011;37669;50.312;18.670;2022-12-07T09:03:10;145.38;;;72.85;;
51584;SDS011;37669;50.312;18.670;2022-12-07T09:05:38;125.38;;;66.38;;
51584;SDS011;37669;50.312;18.670;2022-12-07T09:08:05;126.13;;;68.28;;
51584;SDS011;37669;50.312;18.670;2022-12-07T09:10:32;122.50;;;66.97;;
51584;SDS011;37669;50.312;18.670;2022-12-07T09:13:00;140.15;;;71.95;;
51584;SDS011;37669;50.312;18.670;2022-12-07T09:15:28;129.52;;;72.50;;
51584;SDS011;37669;50.312;18.670;2022-12-07T09:17:56;140.77;;;75.80;;
51584;SDS011;37669;50.312;18.670;2022-12-07T09:20:23;197.23;;;81.03;;
51584;SDS011;37669;50.312;18.670;2022-12-07T09:22:50;117.25;;;65.70;;
51584;SDS011;37669;50.312;18.670;2022-12-07T09:25:17;113.90;;;60.83;;
51584;SDS011;37669;50.312;18.670;2022-12-07T09:27:44;103.95;;;60.47;;
51584;SDS011;37669;50.312;18.670;2022-12-07T09:30:12;118.10;;;63.67;;
51584;SDS011;37669;50.312;18.670;2022-12-07T09:32:40;142.13;;;70.13;;
51584;SDS011;37669;50.312;18.670;2022-12-07T09:35:08;133.15;;;66.28;;
51584;SDS011;37669;50.312;18.670;2022-12-07T09:37:35;135.45;;;70.05;;
51584;SDS011;37669;50.312;18.670;2022-12-07T09:40:02;143.30;;;75.15;;
51584;SDS011;37669;50.312;18.670;2022-12-07T09:42:32;164.68;;;83.00;;
51584;SDS011;37669;50.312;18.670;2022-12-07T09:45:02;160.95;;;81.82;;
51584;SDS011;37669;50.312;18.670;2022-12-07T09:47:32;162.88;;;86.78;;
51584;SDS011;37669;50.312;18.670;2022-12-07T09:50:03;150.35;;;79.80;;
51584;SDS011;37669;50.312;18.670;2022-12-07T09:52:33;127.97;;;71.10;;
51584;SDS011;37669;50.312;18.670;2022-12-07T09:55:01;125.53;;;74.63;;
51584;SDS011;37669;50.312;18.670;2022-12-07T09:57:30;159.15;;;78.40;;
51584;SDS011;37669;50.312;18.670;2022-12-07T10:00:00;146.05;;;81.07;;
51584;SDS011;37669;50.312;18.670;2022-12-07T10:02:34;149.02;;;80.53;;
51584;SDS011;37669;50.312;18.670;2022-12-07T10:05:05;135.07;;;77.35;;
51584;SDS011;37669;50.312;18.670;2022-12-07T10:07:34;125.63;;;75.15;;
51584;SDS011;37669;50.312;18.670;2022-12-07T10:10:02;111.75;;;72.95;;
51584;SDS011;37669;50.312;18.670;2022-12-07T10:12:30;123.93;;;74.72;;
51584;SDS011;37669;50.312;18.670;2022-12-07T10:15:14;126.53;;;69.75;;
51584;SDS011;37669;50.312;18.670;2022-12-07T10:17:41;128.82;;;67.90;;
51584;SDS011;37669;50.312;18.670;2022-12-07T10:20:18;118.20;;;67.53;;
51584;SDS011;37669;50.312;18.670;2022-12-07T10:22:56;107.20;;;64.22;;
51584;SDS011;37669;50.312;18.670;2022-12-07T10:25:26;104.93;;;61.72;;
51584;SDS011;37669;50.312;18.670;2022-12-07T10:27:57;105.57;;;61.08;;
51584;SDS011;37669;50.312;18.670;2022-12-07T10:30:26;101.97;;;60.25;;
51584;SDS011;37669;50.312;18.670;2022-12-07T10:32:53;87.10;;;56.38;;
51584;SDS011;37669;50.312;18.670;2022-12-07T10:35:23;100.30;;;58.13;;
51584;SDS011;37669;50.312;18.670;2022-12-07T10:37:53;91.70;;;52.80;;
51584;SDS011;37669;50.312;18.670;2022-12-07T10:40:25;92.80;;;54.00;;
51584;SDS011;37669;50.312;18.670;2022-12-07T10:43:02;79.82;;;52.50;;
51584;SDS011;37669;50.312;18.670;2022-12-07T10:45:31;78.60;;;50.20;;
51584;SDS011;37669;50.312;18.670;2022-12-07T10:47:59;81.28;;;52.63;;
51584;SDS011;37669;50.312;18.670;2022-12-07T10:50:41;76.30;;;50.85;;
51584;SDS011;37669;50.312;18.670;2022-12-07T10:53:30;82.10;;;52.15;;
51584;SDS011;37669;50.312;18.670;2022-12-07T10:59:14;96.88;;;58.60;;
51584;SDS011;37669;50.312;18.670;2022-12-07T11:02:01;82.88;;;52.58;;
51584;SDS011;37669;50.312;18.670;2022-12-07T11:04:43;81.47;;;53.78;;
51584;SDS011;37669;50.312;18.670;2022-12-07T11:07:27;78.95;;;51.33;;
51584;SDS011;37669;50.312;18.670;2022-12-07T11:10:05;72.38;;;49.22;;
51584;SDS011;37669;50.312;18.670;2022-12-07T11:15:33;87.45;;;55.00;;
51584;SDS011;37669;50.312;18.670;2022-12-07T11:18:11;75.38;;;49.95;;
51584;SDS011;37669;50.312;18.670;2022-12-07T11:20:49;94.00;;;52.97;;
51584;SDS011;37669;50.312;18.670;2022-12-07T11:23:28;74.80;;;46.42;;
51584;SDS011;37669;50.312;18.670;2022-12-07T11:26:07;77.55;;;47.13;;
51584;SDS011;37669;50.312;18.670;2022-12-07T11:28:50;62.88;;;46.78;;
51584;SDS011;37669;50.312;18.670;2022-12-07T11:31:30;68.88;;;50.35;;
51584;SDS011;37669;50.312;18.670;2022-12-07T11:34:04;85.20;;;52.55;;
51584;SDS011;37669;50.312;18.670;2022-12-07T11:36:36;105.28;;;67.50;;
51584;SDS011;37669;50.312;18.670;2022-12-07T11:39:11;134.35;;;80.28;;
51584;SDS011;37669;50.312;18.670;2022-12-07T11:41:47;66.05;;;48.00;;
51584;SDS011;37669;50.312;18.670;2022-12-07T11:44:19;56.25;;;44.50;;
51584;SDS011;37669;50.312;18.670;2022-12-07T11:46:56;60.50;;;43.20;;
51584;SDS011;37669;50.312;18.670;2022-12-07T11:49:32;71.18;;;52.15;;
51584;SDS011;37669;50.312;18.670;2022-12-07T11:52:09;65.00;;;46.25;;
51584;SDS011;37669;50.312;18.670;2022-12-07T11:54:46;45.85;;;38.90;;
51584;SDS011;37669;50.312;18.670;2022-12-07T11:57:20;43.50;;;34.38;;
51584;SDS011;37669;50.312;18.670;2022-12-07T11:59:56;45.03;;;34.08;;
51584;SDS011;37669;50.312;18.670;2022-12-07T12:02:28;46.40;;;36.00;;
51584;SDS011;37669;50.312;18.670;2022-12-07T12:05:02;35.58;;;30.58;;
51584;SDS011;37669;50.312;18.670;2022-12-07T12:07:42;31.15;;;25.70;;
51584;SDS011;37669;50.312;18.670;2022-12-07T12:10:16;35.20;;;28.95;;
51584;SDS011;37669;50.312;18.670;2022-12-07T12:12:52;42.05;;;32.65;;
51584;SDS011;37669;50.312;18.670;2022-12-07T12:15:35;63.22;;;40.58;;
51584;SDS011;37669;50.312;18.670;2022-12-07T12:18:20;45.65;;;32.75;;
51584;SDS011;37669;50.312;18.670;2022-12-07T12:21:06;46.15;;;31.25;;
51584;SDS011;37669;50.312;18.670;2022-12-07T12:23:37;43.58;;;33.10;;
51584;SDS011;37669;50.312;18.670;2022-12-07T12:26:13;48.28;;;34.28;;
51584;SDS011;37669;50.312;18.670;2022-12-07T12:28:49;38.65;;;29.27;;
51584;SDS011;37669;50.312;18.670;2022-12-07T12:31:30;50.42;;;28.70;;
51584;SDS011;37669;50.312;18.670;2022-12-07T12:34:02;46.08;;;28.70;;
51584;SDS011;37669;50.312;18.670;2022-12-07T12:36:44;33.67;;;25.48;;
51584;SDS011;37669;50.312;18.670;2022-12-07T12:39:13;33.42;;;24.90;;
51584;SDS011;37669;50.312;18.670;2022-12-07T12:41:52;32.03;;;26.48;;
51584;SDS011;37669;50.312;18.670;2022-12-07T12:47:52;38.15;;;27.08;;
51584;SDS011;37669;50.312;18.670;2022-12-07T12:50:24;41.33;;;30.85;;
51584;SDS011;37669;50.312;18.670;2022-12-07T12:58:51;43.20;;;29.80;;
51584;SDS011;37669;50.312;18.670;2022-12-07T13:01:53;55.80;;;38.72;;
51584;SDS011;37669;50.312;18.670;2022-12-07T13:10:21;35.05;;;24.17;;
51584;SDS011;37669;50.312;18.670;2022-12-07T13:12:55;28.38;;;20.85;;
51584;SDS011;37669;50.312;18.670;2022-12-07T13:15:35;25.65;;;21.35;;
51584;SDS011;37669;50.312;18.670;2022-12-07T13:18:22;32.97;;;24.40;;
51584;SDS011;37669;50.312;18.670;2022-12-07T13:20:54;32.28;;;24.50;;
51584;SDS011;37669;50.312;18.670;2022-12-07T13:23:26;28.58;;;20.98;;
51584;SDS011;37669;50.312;18.670;2022-12-07T13:26:03;27.15;;;19.50;;
51584;SDS011;37669;50.312;18.670;2022-12-07T13:28:36;50.13;;;29.23;;
51584;SDS011;37669;50.312;18.670;2022-12-07T13:34:00;122.55;;;63.60;;
51584;SDS011;37669;50.312;18.670;2022-12-07T13:36:29;33.58;;;24.50;;
51584;SDS011;37669;50.312;18.670;2022-12-07T13:39:14;42.90;;;28.77;;
51584;SDS011;37669;50.312;18.670;2022-12-07T13:41:48;35.50;;;25.30;;
51584;SDS011;37669;50.312;18.670;2022-12-07T13:44:17;33.92;;;27.30;;
51584;SDS011;37669;50.312;18.670;2022-12-07T13:46:48;41.10;;;26.40;;
51584;SDS011;37669;50.312;18.670;2022-12-07T13:49:21;33.63;;;24.70;;
51584;SDS011;37669;50.312;18.670;2022-12-07T13:51:49;33.38;;;26.50;;
51584;SDS011;37669;50.312;18.670;2022-12-07T13:54:17;46.50;;;33.10;;
51584;SDS011;37669;50.312;18.670;2022-12-07T13:56:47;50.40;;;28.90;;
51584;SDS011;37669;50.312;18.670;2022-12-07T13:59:17;39.25;;;28.13;;
51584;SDS011;37669;50.312;18.670;2022-12-07T14:01:48;31.90;;;24.00;;
51584;SDS011;37669;50.312;18.670;2022-12-07T14:04:17;30.45;;;22.95;;
51584;SDS011;37669;50.312;18.670;2022-12-07T14:06:49;44.78;;;30.38;;
51584;SDS011;37669;50.312;18.670;2022-12-07T14:09:17;35.28;;;26.08;;
51584;SDS011;37669;50.312;18.670;2022-12-07T14:11:46;35.00;;;25.58;;
51584;SDS011;37669;50.312;18.670;2022-12-07T14:14:16;41.45;;;28.33;;
51584;SDS011;37669;50.312;18.670;2022-12-07T14:16:56;38.05;;;26.30;;
51584;SDS011;37669;50.312;18.670;2022-12-07T14:19:44;49.17;;;32.60;;
51584;SDS011;37669;50.312;18.670;2022-12-07T14:22:22;41.90;;;26.63;;
51584;SDS011;37669;50.312;18.670;2022-12-07T14:25:01;62.03;;;35.78;;
51584;SDS011;37669;50.312;18.670;2022-12-07T14:30:14;45.38;;;27.75;;
51584;SDS011;37669;50.312;18.670;2022-12-07T14:32:48;67.68;;;38.92;;
51584;SDS011;37669;50.312;18.670;2022-12-07T14:35:17;68.95;;;39.95;;
51584;SDS011;37669;50.312;18.670;2022-12-07T14:37:46;58.25;;;36.28;;
51584;SDS011;37669;50.312;18.670;2022-12-07T14:40:15;75.10;;;44.42;;
51584;SDS011;37669;50.312;18.670;2022-12-07T14:42:44;55.47;;;33.75;;
51584;SDS011;37669;50.312;18.670;2022-12-07T14:45:13;63.92;;;40.40;;
51584;SDS011;37669;50.312;18.670;2022-12-07T14:47:42;56.17;;;33.28;;
51584;SDS011;37669;50.312;18.670;2022-12-07T14:50:13;56.17;;;32.20;;
51584;SDS011;37669;50.312;18.670;2022-12-07T14:52:41;64.07;;;38.05;;
51584;SDS011;37669;50.312;18.670;2022-12-07T14:55:13;75.55;;;39.15;;
51584;SDS011;37669;50.312;18.670;2022-12-07T14:57:43;77.05;;;42.10;;
51584;SDS011;37669;50.312;18.670;2022-12-07T15:00:13;61.80;;;33.72;;
51584;SDS011;37669;50.312;18.670;2022-12-07T15:02:42;70.07;;;40.05;;
51584;SDS011;37669;50.312;18.670;2022-12-07T15:05:09;76.50;;;45.55;;
51584;SDS011;37669;50.312;18.670;2022-12-07T15:07:38;83.13;;;44.90;;
51584;SDS011;37669;50.312;18.670;2022-12-07T15:10:06;68.47;;;40.70;;
51584;SDS011;37669;50.312;18.670;2022-12-07T15:12:41;42.75;;;27.50;;
51584;SDS011;37669;50.312;18.670;2022-12-07T15:15:08;85.95;;;48.67;;
51584;SDS011;37669;50.312;18.670;2022-12-07T15:17:35;67.47;;;37.88;;
51584;SDS011;37669;50.312;18.670;2022-12-07T15:20:03;57.58;;;31.23;;
51584;SDS011;37669;50.312;18.670;2022-12-07T15:22:32;47.17;;;27.55;;
51584;SDS011;37669;50.312;18.670;2022-12-07T15:25:01;35.65;;;23.50;;
51584;SDS011;37669;50.312;18.670;2022-12-07T15:27:29;39.60;;;21.80;;
51584;SDS011;37669;50.312;18.670;2022-12-07T15:29:56;44.63;;;23.58;;
51584;SDS011;37669;50.312;18.670;2022-12-07T15:32:23;45.65;;;31.02;;
51584;SDS011;37669;50.312;18.670;2022-12-07T15:34:50;46.47;;;26.75;;
51584;SDS011;37669;50.312;18.670;2022-12-07T15:37:17;47.88;;;27.52;;
51584;SDS011;37669;50.312;18.670;2022-12-07T15:39:44;56.28;;;34.05;;
51584;SDS011;37669;50.312;18.670;2022-12-07T15:42:13;30.60;;;19.77;;
51584;SDS011;37669;50.312;18.670;2022-12-07T15:44:40;37.40;;;24.05;;
51584;SDS011;37669;50.312;18.670;2022-12-07T15:47:24;50.40;;;28.77;;
51584;SDS011;37669;50.312;18.670;2022-12-07T15:49:51;43.67;;;25.60;;
51584;SDS011;37669;50.312;18.670;2022-12-07T15:52:18;63.03;;;34.67;;
51584;SDS011;37669;50.312;18.670;2022-12-07T15:54:45;71.50;;;39.60;;
51584;SDS011;37669;50.312;18.670;2022-12-07T15:57:15;89.55;;;46.33;;
51584;SDS011;37669;50.312;18.670;2022-12-07T15:59:42;78.72;;;45.10;;
51584;SDS011;37669;50.312;18.670;2022-12-07T16:02:09;74.60;;;35.35;;
51584;SDS011;37669;50.312;18.670;2022-12-07T16:04:36;41.92;;;28.02;;
51584;SDS011;37669;50.312;18.670;2022-12-07T16:07:03;86.78;;;51.75;;
51584;SDS011;37669;50.312;18.670;2022-12-07T16:09:31;56.38;;;29.52;;
51584;SDS011;37669;50.312;18.670;2022-12-07T16:11:58;51.10;;;29.17;;
51584;SDS011;37669;50.312;18.670;2022-12-07T16:14:26;68.57;;;34.38;;
51584;SDS011;37669;50.312;18.670;2022-12-07T16:16:53;51.03;;;30.05;;
51584;SDS011;37669;50.312;18.670;2022-12-07T16:19:20;45.85;;;27.20;;
51584;SDS011;37669;50.312;18.670;2022-12-07T16:21:47;45.58;;;29.42;;
51584;SDS011;37669;50.312;18.670;2022-12-07T16:24:14;42.80;;;29.67;;
51584;SDS011;37669;50.312;18.670;2022-12-07T16:26:41;49.92;;;34.35;;
51584;SDS011;37669;50.312;18.670;2022-12-07T16:29:09;43.05;;;30.60;;
51584;SDS011;37669;50.312;18.670;2022-12-07T16:31:39;64.63;;;39.53;;
51584;SDS011;37669;50.312;18.670;2022-12-07T16:34:06;56.85;;;35.55;;
51584;SDS011;37669;50.312;18.670;2022-12-07T16:36:34;51.17;;;33.67;;
51584;SDS011;37669;50.312;18.670;2022-12-07T16:39:02;58.78;;;35.65;;
51584;SDS011;37669;50.312;18.670;2022-12-07T16:41:29;62.25;;;34.72;;
51584;SDS011;37669;50.312;18.670;2022-12-07T16:43:56;73.20;;;35.80;;
51584;SDS011;37669;50.312;18.670;2022-12-07T16:46:24;48.55;;;32.78;;
51584;SDS011;37669;50.312;18.670;2022-12-07T16:48:52;53.72;;;36.38;;
51584;SDS011;37669;50.312;18.670;2022-12-07T16:51:19;53.47;;;36.63;;
51584;SDS011;37669;50.312;18.670;2022-12-07T16:53:46;55.70;;;36.63;;
51584;SDS011;37669;50.312;18.670;2022-12-07T16:56:14;55.90;;;32.35;;
51584;SDS011;37669;50.312;18.670;2022-12-07T16:58:43;47.53;;;30.73;;
51584;SDS011;37669;50.312;18.670;2022-12-07T17:03:36;51.35;;;31.48;;
51584;SDS011;37669;50.312;18.670;2022-12-07T17:06:09;52.38;;;30.88;;
51584;SDS011;37669;50.312;18.670;2022-12-07T17:08:38;58.97;;;34.13;;
51584;SDS011;37669;50.312;18.670;2022-12-07T17:11:09;40.00;;;24.42;;
51584;SDS011;37669;50.312;18.670;2022-12-07T17:13:36;35.03;;;22.33;;
51584;SDS011;37669;50.312;18.670;2022-12-07T17:16:21;55.35;;;32.28;;
51584;SDS011;37669;50.312;18.670;2022-12-07T17:18:48;43.15;;;23.88;;
51584;SDS011;37669;50.312;18.670;2022-12-07T17:21:16;49.90;;;27.88;;
51584;SDS011;37669;50.312;18.670;2022-12-07T17:23:43;35.55;;;23.58;;
51584;SDS011;37669;50.312;18.670;2022-12-07T17:26:11;37.88;;;21.88;;
51584;SDS011;37669;50.312;18.670;2022-12-07T17:28:39;52.38;;;40.20;;
51584;SDS011;37669;50.312;18.670;2022-12-07T17:31:07;56.47;;;40.25;;
51584;SDS011;37669;50.312;18.670;2022-12-07T17:33:35;61.15;;;45.78;;
51584;SDS011;37669;50.312;18.670;2022-12-07T17:36:08;129.38;;;79.80;;
51584;SDS011;37669;50.312;18.670;2022-12-07T17:38:37;54.08;;;32.97;;
51584;SDS011;37669;50.312;18.670;2022-12-07T17:41:10;48.28;;;32.10;;
51584;SDS011;37669;50.312;18.670;2022-12-07T17:43:58;35.33;;;22.73;;
51584;SDS011;37669;50.312;18.670;2022-12-07T17:46:25;27.05;;;19.58;;
51584;SDS011;37669;50.312;18.670;2022-12-07T17:48:53;39.90;;;21.38;;
51584;SDS011;37669;50.312;18.670;2022-12-07T17:51:20;50.70;;;34.67;;
51584;SDS011;37669;50.312;18.670;2022-12-07T17:54:05;38.10;;;22.17;;
51584;SDS011;37669;50.312;18.670;2022-12-07T17:56:32;32.28;;;20.40;;
51584;SDS011;37669;50.312;18.670;2022-12-07T17:58:59;35.10;;;20.67;;
51584;SDS011;37669;50.312;18.670;2022-12-07T18:01:27;37.70;;;20.98;;
51584;SDS011;37669;50.312;18.670;2022-12-07T18:03:53;40.13;;;24.08;;
51584;SDS011;37669;50.312;18.670;2022-12-07T18:06:21;52.45;;;28.50;;
51584;SDS011;37669;50.312;18.670;2022-12-07T18:08:48;46.28;;;26.63;;
51584;SDS011;37669;50.312;18.670;2022-12-07T18:11:16;42.13;;;28.30;;
51584;SDS011;37669;50.312;18.670;2022-12-07T18:13:44;43.47;;;26.73;;
51584;SDS011;37669;50.312;18.670;2022-12-07T18:16:12;39.50;;;25.42;;
51584;SDS011;37669;50.312;18.670;2022-12-07T18:18:41;42.72;;;26.45;;
51584;SDS011;37669;50.312;18.670;2022-12-07T18:21:09;47.42;;;28.48;;
51584;SDS011;37669;50.312;18.670;2022-12-07T18:23:40;52.80;;;29.70;;
51584;SDS011;37669;50.312;18.670;2022-12-07T18:26:07;56.75;;;32.65;;
51584;SDS011;37669;50.312;18.670;2022-12-07T18:28:36;66.82;;;35.17;;
51584;SDS011;37669;50.312;18.670;2022-12-07T18:31:03;76.38;;;39.30;;
51584;SDS011;37669;50.312;18.670;2022-12-07T18:33:30;70.85;;;37.80;;
51584;SDS011;37669;50.312;18.670;2022-12-07T18:35:57;60.92;;;34.70;;
51584;SDS011;37669;50.312;18.670;2022-12-07T18:38:26;69.40;;;38.60;;
51584;SDS011;37669;50.312;18.670;2022-12-07T18:40:53;67.78;;;40.47;;
51584;SDS011;37669;50.312;18.670;2022-12-07T18:43:20;81.82;;;42.67;;
51584;SDS011;37669;50.312;18.670;2022-12-07T18:45:51;79.20;;;42.25;;
51584;SDS011;37669;50.312;18.670;2022-12-07T18:48:19;89.53;;;43.17;;
51584;SDS011;37669;50.312;18.670;2022-12-07T18:50:57;82.63;;;47.60;;
51584;SDS011;37669;50.312;18.670;2022-12-07T18:53:25;50.20;;;31.27;;
51584;SDS011;37669;50.312;18.670;2022-12-07T18:55:59;65.43;;;34.70;;
51584;SDS011;37669;50.312;18.670;2022-12-07T18:58:27;54.80;;;34.65;;
51584;SDS011;37669;50.312;18.670;2022-12-07T19:00:55;53.70;;;32.63;;
51584;SDS011;37669;50.312;18.670;2022-12-07T22:45:58;56.97;;;35.42;;
51584;SDS011;37669;50.312;18.670;2022-12-07T22:48:36;60.08;;;36.42;;
51584;SDS011;37669;50.312;18.670;2022-12-07T22:51:03;55.47;;;36.33;;
51584;SDS011;37669;50.312;18.670;2022-12-07T22:53:30;52.53;;;34.25;;
51584;SDS011;37669;50.312;18.670;2022-12-07T22:55:57;47.75;;;33.42;;
51584;SDS011;37669;50.312;18.670;2022-12-07T22:58:24;53.42;;;31.02;;
51584;SDS011;37669;50.312;18.670;2022-12-07T23:00:51;50.10;;;32.35;;
51584;SDS011;37669;50.312;18.670;2022-12-07T23:03:20;49.90;;;31.30;;
51584;SDS011;37669;50.312;18.670;2022-12-07T23:05:47;43.83;;;29.40;;
51584;SDS011;37669;50.312;18.670;2022-12-07T23:08:16;48.90;;;31.05;;
51584;SDS011;37669;50.312;18.670;2022-12-07T23:10:43;47.55;;;31.80;;